createdAt,value
2024-01-30T00:02:11.571Z,53.50
2024-01-30T00:04:41.142Z,54.04
2024-01-30T00:07:09.434Z,53.81
2024-01-30T00:09:37.738Z,53.61
2024-01-30T00:12:07.487Z,52.74
2024-01-30T00:14:35.735Z,53.81
2024-01-30T00:17:04.090Z,52.81
2024-01-30T00:19:32.414Z,52.70
2024-01-30T00:22:02.107Z,53.27
2024-01-30T00:24:30.347Z,53.27
2024-01-30T00:26:58.504Z,53.57
2024-01-30T00:29:31.636Z,53.11
2024-01-30T00:32:00.058Z,52.89
2024-01-30T00:34:28.365Z,53.00
2024-01-30T00:36:57.002Z,52.89
2024-01-30T00:39:26.740Z,53.41
2024-01-30T00:41:54.931Z,52.91
2024-01-30T00:44:23.174Z,52.40
2024-01-30T00:46:51.328Z,53.64
2024-01-30T00:49:19.676Z,52.57
2024-01-30T00:51:48.759Z,53.30
2024-01-30T00:54:17.026Z,52.67
2024-01-30T00:56:47.203Z,53.53
2024-01-30T00:59:15.323Z,53.12
2024-01-30T01:01:43.596Z,53.93
2024-01-30T01:04:12.076Z,53.38
2024-01-30T01:06:40.370Z,53.92
2024-01-30T01:09:08.560Z,53.55
2024-01-30T01:11:36.860Z,53.41
2024-01-30T01:14:06.523Z,54.47
2024-01-30T01:16:35.741Z,53.78
2024-01-30T01:19:04.773Z,53.72
2024-01-30T01:21:33.104Z,54.42
2024-01-30T01:24:01.225Z,54.62
2024-01-30T01:26:29.424Z,54.08
2024-01-30T01:28:57.584Z,54.50
2024-01-30T01:31:30.924Z,54.77
2024-01-30T01:33:59.426Z,54.82
2024-01-30T01:36:27.664Z,55.14
2024-01-30T01:38:55.822Z,54.95
2024-01-30T01:41:23.977Z,54.55
2024-01-30T01:43:52.222Z,55.30
2024-01-30T01:46:20.614Z,54.98
2024-01-30T01:48:50.464Z,55.01
2024-01-30T01:51:19.379Z,54.87
2024-01-30T01:53:47.941Z,55.53
2024-01-30T01:56:16.896Z,54.70
2024-01-30T01:58:48.780Z,55.02
2024-01-30T02:01:18.620Z,55.66
2024-01-30T02:03:48.046Z,55.10
2024-01-30T02:06:18.789Z,55.47
2024-01-30T02:08:46.949Z,55.46
2024-01-30T02:11:15.283Z,55.86
2024-01-30T02:13:43.755Z,55.87
2024-01-30T02:16:11.938Z,56.17
2024-01-30T02:18:44.660Z,56.21
2024-01-30T02:21:14.862Z,56.04
2024-01-30T02:23:45.512Z,56.27
2024-01-30T02:26:14.042Z,56.39
2024-01-30T02:28:42.148Z,56.08
2024-01-30T02:31:10.409Z,56.64
2024-01-30T02:33:38.736Z,56.69
2024-01-30T02:36:07.554Z,56.84
2024-01-30T02:38:37.191Z,56.89
2024-01-30T02:41:05.541Z,56.84
2024-01-30T02:43:33.703Z,56.70
2024-01-30T02:46:02.325Z,56.72
2024-01-30T02:48:30.708Z,56.64
2024-01-30T02:50:59.211Z,56.60
2024-01-30T02:53:27.309Z,56.41
2024-01-30T02:55:56.899Z,56.77
2024-01-30T02:58:25.181Z,56.25
2024-01-30T03:00:53.583Z,56.78
2024-01-30T03:03:21.886Z,56.56
2024-01-30T03:05:50.318Z,56.54
2024-01-30T03:08:18.645Z,56.31
2024-01-30T03:10:46.801Z,56.37
2024-01-30T03:13:16.497Z,56.48
2024-01-30T03:15:44.787Z,56.45
2024-01-30T03:18:13.154Z,56.33
2024-01-30T03:20:41.588Z,56.30
2024-01-30T03:23:09.800Z,56.42
2024-01-30T03:25:37.962Z,56.36
2024-01-30T03:28:07.163Z,56.35
2024-01-30T03:30:36.876Z,56.29
2024-01-30T03:33:05.482Z,56.51
2024-01-30T03:35:33.793Z,56.80
2024-01-30T03:38:02.000Z,56.78
2024-01-30T03:40:30.134Z,56.99
2024-01-30T03:42:59.176Z,56.96
2024-01-30T03:45:28.629Z,56.84
2024-01-30T03:47:58.355Z,57.02
2024-01-30T03:50:26.618Z,56.97
2024-01-30T03:52:54.809Z,56.82
2024-01-30T03:55:23.085Z,56.66
2024-01-30T03:57:51.349Z,56.39
2024-01-30T04:00:20.004Z,56.34
2024-01-30T04:02:48.202Z,56.76
2024-01-30T04:05:18.179Z,56.66
2024-01-30T04:07:46.492Z,56.69
2024-01-30T04:10:14.760Z,56.98
2024-01-30T04:12:43.548Z,57.12
2024-01-30T04:15:12.203Z,57.16
2024-01-30T04:17:40.884Z,57.24
2024-01-30T04:20:10.067Z,57.50
2024-01-30T04:22:39.924Z,57.94
2024-01-30T04:25:09.120Z,57.48
2024-01-30T04:27:37.299Z,58.16
2024-01-30T04:30:06.256Z,58.46
2024-01-30T04:32:34.985Z,58.20
2024-01-30T04:35:05.320Z,58.49
2024-01-30T04:37:35.092Z,58.54
2024-01-30T04:40:05.281Z,58.39
2024-01-30T04:42:33.527Z,57.91
2024-01-30T04:45:01.768Z,58.04
2024-01-30T04:47:30.952Z,57.87
2024-01-30T04:49:59.348Z,57.79
2024-01-30T04:52:27.806Z,57.80
2024-01-30T04:54:56.016Z,57.97
2024-01-30T04:57:25.663Z,57.96
2024-01-30T04:59:53.840Z,57.98
2024-01-30T05:02:22.048Z,57.95
2024-01-30T05:04:50.279Z,57.85
2024-01-30T05:07:18.740Z,57.91
2024-01-30T05:09:47.040Z,57.79
2024-01-30T05:12:15.151Z,57.66
2024-01-30T05:14:44.884Z,58.06
2024-01-30T05:17:14.109Z,58.05
2024-01-30T05:19:42.293Z,58.26
2024-01-30T05:22:10.457Z,58.15
2024-01-30T05:24:39.660Z,58.28
2024-01-30T05:27:07.857Z,58.02
2024-01-30T05:29:36.085Z,58.26
2024-01-30T05:32:07.725Z,58.35
2024-01-30T05:34:35.898Z,58.43
2024-01-30T05:37:04.285Z,58.27
2024-01-30T05:39:34.348Z,58.06
2024-01-30T05:42:02.784Z,58.06
2024-01-30T05:44:31.052Z,58.31
2024-01-30T05:46:59.260Z,57.90
2024-01-30T05:49:29.448Z,58.00
2024-01-30T05:51:57.860Z,57.71
2024-01-30T05:54:26.120Z,57.88
2024-01-30T05:56:54.363Z,57.75
2024-01-30T05:59:22.481Z,57.40
2024-01-30T06:01:51.180Z,57.31
2024-01-30T06:04:19.541Z,57.42
2024-01-30T06:06:49.252Z,57.47
2024-01-30T06:09:17.725Z,57.35
2024-01-30T06:11:45.964Z,57.49
2024-01-30T06:14:14.221Z,57.43
2024-01-30T06:16:42.443Z,57.42
2024-01-30T06:19:10.667Z,57.36
2024-01-30T06:21:39.665Z,57.13
2024-01-30T06:24:09.938Z,57.22
2024-01-30T06:26:38.579Z,57.37
2024-01-30T06:29:06.758Z,57.54
2024-01-30T06:31:34.974Z,57.57
2024-01-30T06:34:03.291Z,57.70
2024-01-30T06:36:31.647Z,57.48
2024-01-30T06:38:59.802Z,57.48
2024-01-30T06:41:29.523Z,57.49
2024-01-30T06:43:57.807Z,57.67
2024-01-30T06:46:26.095Z,57.41
2024-01-30T06:48:54.437Z,57.49
2024-01-30T06:51:22.795Z,57.60
2024-01-30T06:53:51.069Z,57.32
2024-01-30T06:56:22.061Z,57.46
2024-01-30T06:58:52.226Z,57.50
2024-01-30T07:01:20.841Z,57.64
2024-01-30T07:03:49.207Z,57.70
2024-01-30T07:06:17.544Z,57.55
2024-01-30T07:08:45.733Z,57.22
2024-01-30T07:11:21.199Z,57.09
2024-01-30T07:13:49.669Z,57.00
2024-01-30T07:16:19.680Z,57.27
2024-01-30T07:18:48.178Z,57.29
2024-01-30T07:21:16.515Z,57.17
2024-01-30T07:23:45.152Z,57.12
2024-01-30T07:26:13.893Z,57.07
2024-01-30T07:28:42.482Z,57.24
2024-01-30T07:31:10.711Z,57.10
2024-01-30T07:33:40.538Z,57.35
2024-01-30T07:36:09.638Z,57.29
2024-01-30T07:38:37.775Z,57.68
2024-01-30T07:41:06.414Z,57.83
2024-01-30T07:43:35.623Z,57.70
2024-01-30T07:46:04.226Z,57.97
2024-01-30T07:48:32.444Z,58.00
2024-01-30T07:51:02.030Z,58.10
2024-01-30T07:53:30.238Z,58.09
2024-01-30T07:55:58.958Z,57.97
2024-01-30T07:58:28.735Z,58.32
2024-01-30T08:00:59.655Z,58.09
2024-01-30T08:03:28.433Z,58.35
2024-01-30T08:05:56.721Z,58.07
2024-01-30T08:08:27.753Z,57.97
2024-01-30T08:10:55.974Z,57.91
2024-01-30T08:13:24.407Z,57.95
2024-01-30T08:15:52.911Z,57.96
2024-01-30T08:18:21.264Z,57.69
2024-01-30T08:20:50.429Z,57.60
2024-01-30T08:23:18.612Z,57.54
2024-01-30T08:25:48.238Z,57.32
2024-01-30T08:28:18.261Z,57.19
2024-01-30T08:30:47.841Z,57.78
2024-01-30T08:33:16.180Z,56.80
2024-01-30T08:35:44.452Z,57.11
2024-01-30T08:38:13.862Z,56.89
2024-01-30T08:40:42.105Z,57.23
2024-01-30T08:43:12.310Z,56.61
2024-01-30T08:45:40.769Z,56.96
2024-01-30T08:48:09.664Z,56.32
2024-01-30T08:50:38.067Z,55.61
2024-01-30T08:53:06.938Z,55.37
2024-01-30T08:55:35.185Z,55.61
2024-01-30T08:58:05.256Z,55.61
2024-01-30T09:00:35.155Z,54.90
2024-01-30T09:03:03.416Z,55.46
2024-01-30T09:05:31.828Z,55.88
2024-01-30T09:08:00.107Z,55.95
2024-01-30T09:10:28.706Z,55.92
2024-01-30T09:12:56.944Z,55.96
2024-01-30T09:15:26.809Z,56.25
2024-01-30T09:17:57.009Z,56.75
2024-01-30T09:20:25.231Z,55.97
2024-01-30T09:22:53.521Z,55.71
2024-01-30T09:25:21.797Z,55.84
2024-01-30T09:27:50.255Z,55.20
2024-01-30T09:30:19.401Z,55.65
2024-01-30T09:32:47.585Z,54.92
2024-01-30T09:35:17.827Z,54.83
2024-01-30T09:37:46.319Z,54.64
2024-01-30T09:40:14.677Z,55.72
2024-01-30T09:42:45.719Z,54.78
2024-01-30T09:45:16.862Z,55.26
2024-01-30T09:47:47.106Z,55.11
2024-01-30T09:50:17.926Z,54.75
2024-01-30T09:52:47.138Z,54.42
2024-01-30T09:55:15.875Z,55.33
2024-01-30T09:57:44.736Z,53.56
2024-01-30T10:00:14.858Z,53.61
2024-01-30T10:02:43.095Z,52.51
2024-01-30T10:05:11.640Z,52.34
2024-01-30T10:07:41.310Z,52.02
2024-01-30T10:10:10.296Z,51.89
2024-01-30T10:12:38.529Z,51.69
2024-01-30T10:15:10.422Z,51.96
2024-01-30T10:17:40.575Z,51.44
2024-01-30T10:20:10.344Z,51.06
2024-01-30T10:22:38.725Z,51.70
2024-01-30T10:25:09.833Z,52.11
2024-01-30T10:27:38.007Z,51.95
2024-01-30T10:30:07.649Z,52.27
2024-01-30T10:32:36.154Z,52.63
2024-01-30T10:35:04.768Z,51.67
2024-01-30T10:37:34.867Z,52.12
2024-01-30T10:40:07.112Z,53.19
2024-01-30T10:42:39.175Z,52.39
2024-01-30T10:45:10.812Z,52.25
2024-01-30T10:47:39.691Z,52.27
2024-01-30T10:50:10.288Z,52.85
2024-01-30T10:52:39.401Z,52.43
2024-01-30T10:55:08.704Z,52.31
2024-01-30T10:57:39.130Z,51.75
2024-01-30T11:00:12.533Z,52.11
2024-01-30T11:02:43.349Z,51.31
2024-01-30T11:05:12.958Z,48.78
2024-01-30T11:07:42.678Z,47.55
2024-01-30T11:10:14.635Z,44.78
2024-01-30T11:12:45.891Z,41.47
2024-01-30T11:15:15.801Z,38.75
2024-01-30T11:17:45.622Z,36.98
2024-01-30T11:20:15.998Z,36.28
2024-01-30T11:22:48.730Z,35.96
2024-01-30T11:25:18.465Z,37.38
2024-01-30T11:27:49.342Z,38.29
2024-01-30T11:30:25.196Z,38.22
2024-01-30T11:33:06.071Z,37.05
2024-01-30T11:35:35.914Z,36.74
2024-01-30T11:38:05.921Z,36.87
2024-01-30T11:40:35.514Z,37.59
2024-01-30T11:43:07.115Z,38.57
2024-01-30T11:45:36.600Z,38.94
2024-01-30T11:48:06.294Z,39.24
2024-01-30T11:50:36.323Z,38.72
2024-01-30T11:53:05.314Z,39.04
2024-01-30T11:55:34.909Z,39.03
2024-01-30T11:58:06.797Z,39.35
2024-01-30T12:00:36.199Z,39.21
2024-01-30T12:03:07.684Z,40.13
2024-01-30T12:05:35.999Z,40.30
2024-01-30T12:08:04.456Z,41.11
2024-01-30T12:10:32.843Z,41.26
2024-01-30T12:13:01.908Z,41.13
2024-01-30T12:15:31.929Z,41.16
2024-01-30T12:18:08.604Z,41.97
2024-01-30T12:20:37.865Z,42.18
2024-01-30T12:23:06.627Z,42.30
2024-01-30T12:25:35.301Z,41.58
2024-01-30T12:28:04.119Z,42.04
2024-01-30T12:30:34.167Z,42.35
2024-01-30T12:33:02.901Z,42.52
2024-01-30T12:35:33.549Z,42.70
2024-01-30T12:38:02.616Z,43.09
2024-01-30T12:40:31.196Z,42.83
2024-01-30T12:42:59.907Z,42.86
2024-01-30T12:45:28.151Z,43.52
2024-01-30T12:47:59.519Z,43.38
2024-01-30T12:50:27.888Z,43.32
2024-01-30T12:52:57.083Z,43.44
2024-01-30T12:55:26.134Z,42.88
2024-01-30T12:57:54.400Z,43.66
2024-01-30T13:00:23.454Z,42.95
2024-01-30T13:02:51.652Z,43.54
2024-01-30T13:05:21.890Z,43.48
2024-01-30T13:07:50.258Z,42.95
2024-01-30T13:10:18.617Z,43.78
2024-01-30T13:12:46.918Z,43.14
2024-01-30T13:15:15.317Z,43.49
2024-01-30T13:17:45.282Z,44.08
2024-01-30T13:20:13.761Z,43.97
2024-01-30T13:22:44.143Z,43.09
2024-01-30T13:25:13.203Z,43.81
2024-01-30T13:27:41.508Z,43.25
2024-01-30T13:30:11.438Z,43.40
2024-01-30T13:32:42.267Z,42.87
2024-01-30T13:35:10.908Z,42.70
2024-01-30T13:37:39.420Z,42.69
2024-01-30T13:40:13.780Z,43.25
2024-01-30T13:42:42.946Z,42.46
2024-01-30T13:45:12.330Z,43.09
2024-01-30T13:47:40.972Z,43.18
2024-01-30T13:50:11.785Z,42.22
2024-01-30T13:52:44.448Z,43.17
2024-01-30T13:55:15.512Z,43.02
2024-01-30T13:57:44.026Z,42.28
2024-01-30T14:00:14.091Z,41.78
2024-01-30T14:02:42.367Z,42.02
2024-01-30T14:05:11.018Z,42.38
2024-01-30T14:07:40.857Z,41.73
2024-01-30T14:10:12.896Z,42.18
2024-01-30T14:12:45.294Z,42.31
2024-01-30T14:15:23.623Z,41.86
2024-01-30T14:17:57.436Z,42.24
2024-01-30T14:20:26.089Z,42.88
2024-01-30T14:22:57.340Z,42.14
2024-01-30T14:25:26.581Z,42.63
2024-01-30T14:27:56.497Z,42.67
2024-01-30T14:30:24.901Z,43.33
2024-01-30T14:32:53.262Z,43.05
2024-01-30T14:35:22.180Z,42.34
2024-01-30T14:37:50.585Z,42.81
2024-01-30T14:40:19.906Z,43.01
2024-01-30T14:42:48.367Z,42.56
2024-01-30T14:45:20.077Z,42.13
2024-01-30T14:47:48.728Z,42.45
2024-01-30T14:50:18.238Z,42.48
2024-01-30T14:52:46.728Z,42.84
2024-01-30T14:55:15.087Z,42.32
2024-01-30T14:57:46.556Z,43.05
2024-01-30T15:00:18.243Z,42.91
2024-01-30T15:02:48.629Z,42.61
2024-01-30T15:05:17.611Z,42.20
2024-01-30T15:07:46.327Z,42.03
2024-01-30T15:10:14.717Z,42.48
2024-01-30T15:12:43.240Z,42.91
2024-01-30T15:15:11.818Z,42.46
2024-01-30T15:17:42.297Z,41.75
2024-01-30T15:20:11.510Z,42.49
2024-01-30T15:22:41.761Z,41.14
2024-01-30T15:25:10.171Z,42.07
2024-01-30T15:27:38.541Z,42.09
2024-01-30T15:30:08.393Z,41.96
2024-01-30T15:32:36.747Z,41.60
2024-01-30T15:35:07.989Z,41.88
2024-01-30T15:37:36.439Z,42.91
2024-01-30T15:40:07.779Z,42.75
2024-01-30T15:42:36.367Z,43.04
2024-01-30T15:45:04.860Z,42.53
2024-01-30T15:47:33.300Z,43.60
2024-01-30T15:50:01.653Z,43.54
2024-01-30T15:52:31.573Z,42.76
2024-01-30T15:55:00.074Z,43.57
2024-01-30T15:57:30.192Z,43.44
2024-01-30T15:59:59.170Z,43.10
2024-01-30T16:02:27.508Z,43.94
2024-01-30T16:04:55.978Z,44.31
2024-01-30T16:07:24.418Z,43.66
2024-01-30T16:09:54.248Z,44.33
2024-01-30T16:12:22.447Z,44.48
2024-01-30T16:14:50.664Z,44.64
2024-01-30T16:17:19.475Z,44.46
2024-01-30T16:19:47.852Z,44.96
2024-01-30T16:22:16.183Z,45.34
2024-01-30T16:24:44.449Z,44.98
2024-01-30T16:27:14.325Z,46.06
2024-01-30T16:29:42.529Z,45.51
2024-01-30T16:32:10.696Z,45.92
2024-01-30T16:34:38.986Z,46.48
2024-01-30T16:37:07.929Z,46.68
2024-01-30T16:39:36.134Z,46.76
2024-01-30T16:42:04.391Z,46.32
2024-01-30T16:44:34.157Z,46.56
2024-01-30T16:47:02.453Z,46.66
2024-01-30T16:49:30.951Z,47.08
2024-01-30T16:52:02.147Z,46.98
2024-01-30T16:54:30.977Z,47.15
2024-01-30T16:56:59.178Z,47.09
2024-01-30T16:59:27.338Z,47.08
2024-01-30T17:01:56.993Z,47.45
2024-01-30T17:04:25.486Z,47.41
2024-01-30T17:06:54.548Z,47.29
2024-01-30T17:09:23.825Z,47.61
2024-01-30T17:11:52.310Z,47.67
2024-01-30T17:14:20.556Z,47.56
2024-01-30T17:16:54.115Z,47.91
2024-01-30T17:19:26.660Z,47.50
2024-01-30T17:21:55.038Z,47.46
2024-01-30T17:24:30.138Z,47.75
2024-01-30T17:27:02.718Z,48.00
2024-01-30T17:29:31.131Z,47.78
2024-01-30T17:31:59.689Z,48.29
2024-01-30T17:34:29.766Z,48.13
2024-01-30T17:36:58.206Z,48.20
2024-01-30T17:39:26.552Z,48.27
2024-01-30T17:41:54.772Z,48.35
2024-01-30T17:44:23.324Z,47.98
2024-01-30T17:46:53.393Z,48.09
2024-01-30T17:49:21.741Z,48.32
2024-01-30T17:51:51.447Z,48.17
2024-01-30T17:54:19.702Z,48.27
2024-01-30T17:56:47.987Z,47.82
2024-01-30T17:59:22.042Z,48.12
2024-01-30T18:01:50.578Z,48.04
2024-01-30T18:04:20.126Z,48.06
2024-01-30T18:06:53.007Z,48.29
2024-01-30T18:09:22.056Z,48.41
2024-01-30T18:11:50.242Z,48.51
2024-01-30T18:14:18.840Z,48.45
2024-01-30T18:16:46.953Z,48.48
2024-01-30T18:19:15.321Z,48.73
2024-01-30T18:21:44.058Z,48.63
2024-01-30T18:24:13.723Z,48.81
2024-01-30T18:26:42.204Z,48.75
2024-01-30T18:29:10.480Z,48.79
2024-01-30T18:31:43.185Z,48.69
2024-01-30T18:34:11.565Z,48.82
2024-01-30T18:36:42.460Z,49.18
2024-01-30T18:39:11.651Z,49.46
2024-01-30T18:41:41.630Z,49.38
2024-01-30T18:44:09.892Z,49.50
2024-01-30T18:46:38.392Z,49.44
2024-01-30T18:49:07.484Z,49.48
2024-01-30T18:51:35.856Z,50.09
2024-01-30T18:54:04.166Z,50.50
2024-01-30T18:56:32.480Z,50.00
2024-01-30T18:59:02.317Z,50.76
2024-01-30T19:01:30.636Z,50.24
2024-01-30T19:03:58.993Z,50.77
2024-01-30T19:06:27.588Z,50.82
2024-01-30T19:08:55.846Z,51.00
2024-01-30T19:11:24.062Z,50.28
2024-01-30T19:13:52.156Z,49.92
2024-01-30T19:16:21.752Z,50.14
2024-01-30T19:18:51.568Z,50.46
2024-01-30T19:21:19.798Z,50.10
2024-01-30T19:23:47.964Z,50.27
2024-01-30T19:26:16.353Z,49.83
2024-01-30T19:28:45.316Z,50.14
2024-01-30T19:31:14.461Z,50.10
2024-01-30T19:33:45.085Z,49.26
2024-01-30T19:36:13.452Z,49.94
2024-01-30T19:38:41.527Z,49.75
2024-01-30T19:41:13.418Z,50.17
2024-01-30T19:43:41.653Z,50.47
2024-01-30T19:46:12.109Z,49.76
2024-01-30T19:48:41.162Z,50.24
2024-01-30T19:51:10.886Z,51.42
2024-01-30T19:53:40.018Z,51.04
2024-01-30T19:56:08.574Z,51.27
2024-01-30T19:58:36.825Z,51.71
2024-01-30T20:01:06.415Z,50.98
2024-01-30T20:03:35.377Z,51.04
2024-01-30T20:06:03.992Z,52.18
2024-01-30T20:08:35.813Z,51.81
2024-01-30T20:11:05.133Z,52.79
2024-01-30T20:13:33.556Z,52.91
2024-01-30T20:16:02.279Z,52.98
2024-01-30T20:18:31.758Z,52.06
2024-01-30T20:21:00.197Z,52.50
2024-01-30T20:23:28.414Z,53.35
2024-01-30T20:25:59.275Z,52.11
2024-01-30T20:28:27.978Z,52.16
2024-01-30T20:30:56.260Z,52.34
2024-01-30T20:33:25.801Z,52.25
2024-01-30T20:35:54.121Z,52.26
2024-01-30T20:38:22.898Z,53.04
2024-01-30T20:40:51.118Z,52.42
2024-01-30T20:43:20.802Z,52.49
2024-01-30T20:45:48.977Z,52.95
2024-01-30T20:48:18.858Z,52.51
2024-01-30T20:50:47.225Z,52.82
2024-01-30T20:53:15.449Z,51.93
2024-01-30T20:55:43.795Z,52.17
2024-01-30T20:58:12.080Z,52.61
2024-01-30T21:00:41.720Z,52.88
2024-01-30T21:03:09.921Z,52.99
2024-01-30T21:05:38.258Z,52.36
2024-01-30T21:08:07.897Z,52.22
2024-01-30T21:10:36.373Z,52.49
2024-01-30T21:13:04.863Z,53.06
2024-01-30T21:15:32.997Z,52.98
2024-01-30T21:18:04.800Z,52.48
2024-01-30T21:20:33.319Z,53.18
2024-01-30T21:23:01.760Z,53.36
2024-01-30T21:25:29.873Z,52.48
2024-01-30T21:27:58.199Z,52.86
2024-01-30T21:30:27.034Z,53.00
2024-01-30T21:32:55.302Z,52.85
2024-01-30T21:35:25.211Z,53.45
2024-01-30T21:37:53.400Z,54.06
2024-01-30T21:40:21.576Z,54.09
2024-01-30T21:42:52.516Z,53.08
2024-01-30T21:45:22.965Z,52.94
2024-01-30T21:47:51.312Z,54.52
2024-01-30T21:50:21.428Z,54.37
2024-01-30T21:52:51.129Z,53.82
2024-01-30T21:55:19.448Z,53.55
2024-01-30T21:57:47.692Z,53.78
2024-01-30T22:00:17.136Z,54.55
2024-01-30T22:02:45.437Z,54.68
2024-01-30T22:05:13.666Z,53.97
2024-01-30T22:07:43.068Z,53.71
2024-01-30T22:10:13.415Z,53.99
2024-01-30T22:12:41.809Z,54.93
2024-01-30T22:15:10.893Z,53.76
2024-01-30T22:17:39.038Z,54.46
2024-01-30T22:20:10.589Z,53.93
2024-01-30T22:22:38.947Z,54.91
2024-01-30T22:25:08.720Z,55.13
2024-01-30T22:27:42.030Z,53.98
2024-01-30T22:30:10.691Z,54.70
2024-01-30T22:32:38.929Z,55.43
2024-01-30T22:35:11.598Z,55.38
2024-01-30T22:37:39.976Z,54.78
2024-01-30T22:40:09.650Z,54.75
2024-01-30T22:42:39.412Z,54.97
2024-01-30T22:45:08.926Z,54.63
2024-01-30T22:47:37.245Z,55.78
2024-01-30T22:50:06.713Z,55.42
2024-01-30T22:52:35.107Z,55.02
2024-01-30T22:55:04.144Z,55.29
2024-01-30T22:57:33.204Z,55.13
2024-01-30T23:00:08.843Z,55.66
2024-01-30T23:02:37.082Z,55.90
2024-01-30T23:05:06.182Z,55.24
2024-01-30T23:07:37.162Z,55.88
2024-01-30T23:10:06.783Z,55.69
2024-01-30T23:12:34.925Z,55.80
2024-01-30T23:15:05.156Z,56.47
2024-01-30T23:17:33.927Z,55.73
2024-01-30T23:20:03.112Z,55.89
2024-01-30T23:22:31.898Z,55.24
2024-01-30T23:25:00.205Z,55.69
2024-01-30T23:27:28.446Z,55.59
2024-01-30T23:29:56.570Z,55.35
2024-01-30T23:32:34.262Z,55.96
2024-01-30T23:35:09.069Z,55.92
2024-01-30T23:37:37.701Z,56.55
2024-01-30T23:40:10.122Z,55.57
2024-01-30T23:42:38.244Z,55.93
2024-01-30T23:45:07.339Z,55.82
2024-01-30T23:47:36.985Z,55.72
2024-01-30T23:50:06.046Z,56.44
2024-01-30T23:52:35.148Z,55.71
2024-01-30T23:55:03.518Z,56.10
2024-01-30T23:57:31.713Z,56.68
